sensor_id;sensor_type;location;lat;lon;timestamp;pressure;altitude;pressure_sealevel;temperature;humidity
80128;BME280;69440;52.118;5.408;2023-08-08T00:02:10;101583.78;;;14.54;100.00
80128;BME280;69440;52.118;5.408;2023-08-08T00:04:37;101570.66;;;14.48;100.00
80128;BME280;69440;52.118;5.408;2023-08-08T00:07:03;101575.97;;;14.49;100.00
80128;BME280;69440;52.118;5.408;2023-08-08T00:09:30;101572.88;;;14.55;100.00
80128;BME280;69440;52.118;5.408;2023-08-08T00:11:56;101569.19;;;14.56;100.00
80128;BME280;69440;52.118;5.408;2023-08-08T00:14:24;101578.19;;;14.57;100.00
80128;BME280;69440;52.118;5.408;2023-08-08T00:16:51;101574.72;;;14.55;100.00
80128;BME280;69440;52.118;5.408;2023-08-08T00:19:17;101565.44;;;14.59;100.00
80128;BME280;69440;52.118;5.408;2023-08-08T00:21:44;101568.81;;;14.63;100.00
80128;BME280;69440;52.118;5.408;2023-08-08T00:24:10;101569.00;;;14.59;100.00
80128;BME280;69440;52.118;5.408;2023-08-08T00:26:37;101571.59;;;14.61;100.00
80128;BME280;69440;52.118;5.408;2023-08-08T00:29:03;101569.78;;;14.62;100.00
80128;BME280;69440;52.118;5.408;2023-08-08T00:31:30;101560.78;;;14.61;100.00
80128;BME280;69440;52.118;5.408;2023-08-08T00:33:56;101559.81;;;14.62;100.00
80128;BME280;69440;52.118;5.408;2023-08-08T00:36:23;101559.41;;;14.68;100.00
80128;BME280;69440;52.118;5.408;2023-08-08T00:38:49;101560.28;;;14.69;100.00
80128;BME280;69440;52.118;5.408;2023-08-08T00:41:16;101559.50;;;14.67;100.00
80128;BME280;69440;52.118;5.408;2023-08-08T00:43:42;101560.22;;;14.70;100.00
80128;BME280;69440;52.118;5.408;2023-08-08T00:46:10;101561.16;;;14.69;100.00
80128;BME280;69440;52.118;5.408;2023-08-08T00:48:37;101560.38;;;14.67;100.00
80128;BME280;69440;52.118;5.408;2023-08-08T00:51:04;101550.53;;;14.66;100.00
80128;BME280;69440;52.118;5.408;2023-08-08T00:53:31;101553.13;;;14.68;100.00
80128;BME280;69440;52.118;5.408;2023-08-08T00:55:58;101548.78;;;14.65;100.00
80128;BME280;69440;52.118;5.408;2023-08-08T00:58:26;101542.22;;;14.69;100.00
80128;BME280;69440;52.118;5.408;2023-08-08T01:00:54;101545.13;;;14.66;100.00
80128;BME280;69440;52.118;5.408;2023-08-08T01:03:23;101546.75;;;14.69;100.00
80128;BME280;69440;52.118;5.408;2023-08-08T01:06:23;101546.59;;;14.72;100.00
80128;BME280;69440;52.118;5.408;2023-08-08T01:08:59;101539.34;;;14.72;100.00
80128;BME280;69440;52.118;5.408;2023-08-08T01:11:29;101543.19;;;14.68;100.00
80128;BME280;69440;52.118;5.408;2023-08-08T01:13:57;101543.88;;;14.72;100.00
80128;BME280;69440;52.118;5.408;2023-08-08T01:16:25;101539.22;;;14.74;100.00
80128;BME280;69440;52.118;5.408;2023-08-08T01:18:53;101538.38;;;14.73;100.00
80128;BME280;69440;52.118;5.408;2023-08-08T01:21:20;101548.97;;;14.76;100.00
80128;BME280;69440;52.118;5.408;2023-08-08T01:24:01;101542.69;;;14.76;100.00
80128;BME280;69440;52.118;5.408;2023-08-08T01:26:32;101539.13;;;14.75;100.00
80128;BME280;69440;52.118;5.408;2023-08-08T01:28:58;101541.75;;;14.77;100.00
80128;BME280;69440;52.118;5.408;2023-08-08T01:31:24;101538.06;;;14.78;100.00
80128;BME280;69440;52.118;5.408;2023-08-08T01:33:51;101541.75;;;14.77;100.00
80128;BME280;69440;52.118;5.408;2023-08-08T01:36:27;101542.03;;;14.72;100.00
80128;BME280;69440;52.118;5.408;2023-08-08T01:38:59;101540.31;;;14.71;100.00
80128;BME280;69440;52.118;5.408;2023-08-08T01:41:32;101536.78;;;14.69;100.00
80128;BME280;69440;52.118;5.408;2023-08-08T01:44:00;101536.63;;;14.72;100.00
80128;BME280;69440;52.118;5.408;2023-08-08T01:46:29;101540.69;;;14.65;100.00
80128;BME280;69440;52.118;5.408;2023-08-08T01:48:58;101531.69;;;14.65;100.00
80128;BME280;69440;52.118;5.408;2023-08-08T01:51:26;101528.88;;;14.66;100.00
80128;BME280;69440;52.118;5.408;2023-08-08T01:53:53;101534.28;;;14.66;100.00
80128;BME280;69440;52.118;5.408;2023-08-08T01:56:20;101524.34;;;14.67;100.00
80128;BME280;69440;52.118;5.408;2023-08-08T01:58:46;101510.81;;;14.67;100.00
80128;BME280;69440;52.118;5.408;2023-08-08T02:01:13;101512.66;;;14.66;100.00
80128;BME280;69440;52.118;5.408;2023-08-08T02:03:39;101519.78;;;14.67;100.00
80128;BME280;69440;52.118;5.408;2023-08-08T02:06:06;101521.53;;;14.68;100.00
80128;BME280;69440;52.118;5.408;2023-08-08T02:08:33;101514.59;;;14.64;100.00
80128;BME280;69440;52.118;5.408;2023-08-08T02:10:59;101514.69;;;14.63;100.00
80128;BME280;69440;52.118;5.408;2023-08-08T02:13:26;101515.56;;;14.63;100.00
80128;BME280;69440;52.118;5.408;2023-08-08T02:15:52;101511.00;;;14.64;100.00
80128;BME280;69440;52.118;5.408;2023-08-08T02:18:19;101508.31;;;14.64;100.00
80128;BME280;69440;52.118;5.408;2023-08-08T02:20:45;101513.06;;;14.60;100.00
80128;BME280;69440;52.118;5.408;2023-08-08T02:23:12;101510.34;;;14.60;100.00
80128;BME280;69440;52.118;5.408;2023-08-08T02:25:38;101504.84;;;14.62;100.00
80128;BME280;69440;52.118;5.408;2023-08-08T02:28:05;101499.00;;;14.68;100.00
80128;BME280;69440;52.118;5.408;2023-08-08T02:30:32;101494.47;;;14.68;100.00
80128;BME280;69440;52.118;5.408;2023-08-08T02:32:58;101505.59;;;14.64;100.00
80128;BME280;69440;52.118;5.408;2023-08-08T02:35:25;101504.84;;;14.62;100.00
80128;BME280;69440;52.118;5.408;2023-08-08T02:37:51;101496.91;;;14.58;100.00
80128;BME280;69440;52.118;5.408;2023-08-08T02:40:18;101501.56;;;14.56;100.00
80128;BME280;69440;52.118;5.408;2023-08-08T02:42:44;101502.44;;;14.57;100.00
80128;BME280;69440;52.118;5.408;2023-08-08T02:45:11;101501.00;;;14.51;100.00
80128;BME280;69440;52.118;5.408;2023-08-08T02:47:37;101501.88;;;14.52;100.00
80128;BME280;69440;52.118;5.408;2023-08-08T02:50:04;101501.09;;;14.50;100.00
80128;BME280;69440;52.118;5.408;2023-08-08T02:52:31;101496.75;;;14.47;100.00
80128;BME280;69440;52.118;5.408;2023-08-08T02:54:57;101505.63;;;14.49;100.00
80128;BME280;69440;52.118;5.408;2023-08-08T02:57:24;101494.81;;;14.49;100.00
80128;BME280;69440;52.118;5.408;2023-08-08T02:59:50;101509.31;;;14.48;100.00
80128;BME280;69440;52.118;5.408;2023-08-08T03:02:17;101494.16;;;14.46;100.00
80128;BME280;69440;52.118;5.408;2023-08-08T03:04:43;101493.09;;;14.48;100.00
80128;BME280;69440;52.118;5.408;2023-08-08T03:07:10;101485.75;;;14.50;100.00
80128;BME280;69440;52.118;5.408;2023-08-08T03:09:36;101486.91;;;14.46;100.00
80128;BME280;69440;52.118;5.408;2023-08-08T03:12:03;101485.94;;;14.47;100.00
80128;BME280;69440;52.118;5.408;2023-08-08T03:14:30;101483.53;;;14.43;100.00
80128;BME280;69440;52.118;5.408;2023-08-08T03:16:56;101487.88;;;14.45;100.00
80128;BME280;69440;52.118;5.408;2023-08-08T03:19:24;101483.22;;;14.47;100.00
80128;BME280;69440;52.118;5.408;2023-08-08T03:21:51;101481.59;;;14.45;100.00
80128;BME280;69440;52.118;5.408;2023-08-08T03:24:18;101488.84;;;14.44;100.00
80128;BME280;69440;52.118;5.408;2023-08-08T03:26:44;101483.72;;;14.40;100.00
80128;BME280;69440;52.118;5.408;2023-08-08T03:29:11;101481.94;;;14.39;100.00
80128;BME280;69440;52.118;5.408;2023-08-08T03:31:39;101485.44;;;14.41;100.00
80128;BME280;69440;52.118;5.408;2023-08-08T03:34:05;101485.59;;;14.38;100.00
80128;BME280;69440;52.118;5.408;2023-08-08T03:36:32;101490.25;;;14.36;100.00
80128;BME280;69440;52.118;5.408;2023-08-08T03:38:58;101476.94;;;14.33;100.00
80128;BME280;69440;52.118;5.408;2023-08-08T03:41:25;101480.41;;;14.35;100.00
80128;BME280;69440;52.118;5.408;2023-08-08T03:43:51;101474.13;;;14.34;100.00
80128;BME280;69440;52.118;5.408;2023-08-08T03:46:18;101473.47;;;14.30;100.00
80128;BME280;69440;52.118;5.408;2023-08-08T03:48:44;101471.72;;;14.29;100.00
80128;BME280;69440;52.118;5.408;2023-08-08T03:51:11;101469.88;;;14.30;100.00
80128;BME280;69440;52.118;5.408;2023-08-08T03:53:38;101471.72;;;14.29;100.00
80128;BME280;69440;52.118;5.408;2023-08-08T03:56:05;101475.50;;;14.27;100.00
80128;BME280;69440;52.118;5.408;2023-08-08T03:58:33;101467.38;;;14.27;100.00
80128;BME280;69440;52.118;5.408;2023-08-08T04:01:00;101475.59;;;14.25;100.00
80128;BME280;69440;52.118;5.408;2023-08-08T04:03:26;101462.75;;;14.29;100.00
80128;BME280;69440;52.118;5.408;2023-08-08T04:05:53;101460.13;;;14.27;100.00
80128;BME280;69440;52.118;5.408;2023-08-08T04:08:19;101461.22;;;14.25;100.00
80128;BME280;69440;52.118;5.408;2023-08-08T04:10:48;101470.19;;;14.25;100.00
80128;BME280;69440;52.118;5.408;2023-08-08T04:13:15;101457.72;;;14.23;100.00
80128;BME280;69440;52.118;5.408;2023-08-08T04:15:41;101468.75;;;14.20;100.00
80128;BME280;69440;52.118;5.408;2023-08-08T04:18:08;101451.09;;;14.14;100.00
80128;BME280;69440;52.118;5.408;2023-08-08T04:20:34;101454.66;;;14.15;100.00
80128;BME280;69440;52.118;5.408;2023-08-08T04:23:01;101450.44;;;14.11;100.00
80128;BME280;69440;52.118;5.408;2023-08-08T04:25:27;101459.59;;;14.08;100.00
80128;BME280;69440;52.118;5.408;2023-08-08T04:27:54;101449.06;;;14.04;100.00
80128;BME280;69440;52.118;5.408;2023-08-08T04:30:21;101452.63;;;14.04;100.00
80128;BME280;69440;52.118;5.408;2023-08-08T04:32:48;101461.50;;;14.06;100.00
80128;BME280;69440;52.118;5.408;2023-08-08T04:35:14;101453.59;;;14.03;100.00
80128;BME280;69440;52.118;5.408;2023-08-08T04:37:41;101461.69;;;14.03;100.00
80128;BME280;69440;52.118;5.408;2023-08-08T04:40:08;101465.94;;;14.07;100.00
80128;BME280;69440;52.118;5.408;2023-08-08T04:42:35;101459.88;;;14.04;100.00
80128;BME280;69440;52.118;5.408;2023-08-08T04:45:01;101453.69;;;14.02;100.00
80128;BME280;69440;52.118;5.408;2023-08-08T04:47:28;101464.91;;;14.10;100.00
80128;BME280;69440;52.118;5.408;2023-08-08T04:49:54;101461.25;;;14.11;100.00
80128;BME280;69440;52.118;5.408;2023-08-08T04:52:21;101447.22;;;14.04;100.00
80128;BME280;69440;52.118;5.408;2023-08-08T04:54:47;101453.28;;;14.08;100.00
80128;BME280;69440;52.118;5.408;2023-08-08T04:57:13;101450.78;;;14.05;100.00
80128;BME280;69440;52.118;5.408;2023-08-08T04:59:40;101451.56;;;14.07;100.00
80128;BME280;69440;52.118;5.408;2023-08-08T05:02:06;101445.47;;;14.03;100.00
80128;BME280;69440;52.118;5.408;2023-08-08T05:04:33;101453.22;;;14.09;100.00
80128;BME280;69440;52.118;5.408;2023-08-08T05:06:59;101446.84;;;14.10;100.00
80128;BME280;69440;52.118;5.408;2023-08-08T05:09:26;101454.75;;;14.13;100.00
80128;BME280;69440;52.118;5.408;2023-08-08T05:11:53;101463.84;;;14.12;100.00
80128;BME280;69440;52.118;5.408;2023-08-08T05:14:19;101454.66;;;14.15;100.00
80128;BME280;69440;52.118;5.408;2023-08-08T05:16:46;101457.06;;;14.19;100.00
80128;BME280;69440;52.118;5.408;2023-08-08T05:19:12;101458.50;;;14.25;100.00
80128;BME280;69440;52.118;5.408;2023-08-08T05:21:39;101459.47;;;14.24;100.00
80128;BME280;69440;52.118;5.408;2023-08-08T05:24:05;101463.16;;;14.23;100.00
80128;BME280;69440;52.118;5.408;2023-08-08T05:26:32;101456.97;;;14.21;100.00
80128;BME280;69440;52.118;5.408;2023-08-08T05:28:58;101463.34;;;14.20;100.00
80128;BME280;69440;52.118;5.408;2023-08-08T05:31:25;101463.25;;;14.21;100.00
80128;BME280;69440;52.118;5.408;2023-08-08T05:33:51;101461.88;;;14.28;100.00
80128;BME280;69440;52.118;5.408;2023-08-08T05:36:18;101467.09;;;14.32;100.00
80128;BME280;69440;52.118;5.408;2023-08-08T05:38:44;101468.50;;;14.37;100.00
80128;BME280;69440;52.118;5.408;2023-08-08T05:41:11;101457.44;;;14.42;99.31
80128;BME280;69440;52.118;5.408;2023-08-08T05:43:37;101462.66;;;14.45;99.45
80128;BME280;69440;52.118;5.408;2023-08-08T05:46:03;101465.16;;;14.48;99.45
80128;BME280;69440;52.118;5.408;2023-08-08T05:48:30;101472.97;;;14.52;99.23
80128;BME280;69440;52.118;5.408;2023-08-08T05:50:56;101469.00;;;14.58;98.72
80128;BME280;69440;52.118;5.408;2023-08-08T05:53:25;101470.53;;;14.62;99.01
80128;BME280;69440;52.118;5.408;2023-08-08T05:55:52;101475.63;;;14.67;98.82
80128;BME280;69440;52.118;5.408;2023-08-08T05:58:18;101468.97;;;14.72;98.31
80128;BME280;69440;52.118;5.408;2023-08-08T06:00:45;101465.09;;;14.76;98.02
80128;BME280;69440;52.118;5.408;2023-08-08T06:03:11;101461.22;;;14.80;97.87
80128;BME280;69440;52.118;5.408;2023-08-08T06:05:38;101470.00;;;14.84;97.47
80128;BME280;69440;52.118;5.408;2023-08-08T06:08:05;101465.22;;;14.87;97.62
80128;BME280;69440;52.118;5.408;2023-08-08T06:10:34;101469.47;;;14.91;97.37
80128;BME280;69440;52.118;5.408;2023-08-08T06:13:00;101469.16;;;14.96;96.99
80128;BME280;69440;52.118;5.408;2023-08-08T06:15:27;101477.06;;;14.99;96.97
80128;BME280;69440;52.118;5.408;2023-08-08T06:17:53;101471.59;;;15.01;96.35
80128;BME280;69440;52.118;5.408;2023-08-08T06:20:20;101480.25;;;15.06;95.32
80128;BME280;69440;52.118;5.408;2023-08-08T06:22:48;101481.69;;;15.11;95.42
80128;BME280;69440;52.118;5.408;2023-08-08T06:25:15;101484.16;;;15.14;93.30
80128;BME280;69440;52.118;5.408;2023-08-08T06:27:42;101482.88;;;15.20;94.45
80128;BME280;69440;52.118;5.408;2023-08-08T06:30:08;101478.13;;;15.23;92.71
80128;BME280;69440;52.118;5.408;2023-08-08T06:32:35;101487.78;;;15.28;92.56
80128;BME280;69440;52.118;5.408;2023-08-08T06:35:02;101483.13;;;15.30;92.23
80128;BME280;69440;52.118;5.408;2023-08-08T06:37:28;101491.72;;;15.36;93.60
80128;BME280;69440;52.118;5.408;2023-08-08T06:39:55;101487.59;;;15.43;92.61
80128;BME280;69440;52.118;5.408;2023-08-08T06:42:21;101485.44;;;15.48;91.93
80128;BME280;69440;52.118;5.408;2023-08-08T06:44:50;101487.81;;;15.53;91.34
80128;BME280;69440;52.118;5.408;2023-08-08T06:47:17;101496.41;;;15.60;92.32
80128;BME280;69440;52.118;5.408;2023-08-08T06:49:43;101496.13;;;15.64;89.58
80128;BME280;69440;52.118;5.408;2023-08-08T06:52:10;101485.94;;;15.68;89.07
80128;BME280;69440;52.118;5.408;2023-08-08T06:54:36;101495.47;;;15.73;89.16
80128;BME280;69440;52.118;5.408;2023-08-08T06:57:03;101493.63;;;15.74;86.62
80128;BME280;69440;52.118;5.408;2023-08-08T06:59:30;101489.09;;;15.74;86.21
80128;BME280;69440;52.118;5.408;2023-08-08T07:01:57;101496.88;;;15.79;86.43
80128;BME280;69440;52.118;5.408;2023-08-08T07:04:23;101496.44;;;15.85;86.57
80128;BME280;69440;52.118;5.408;2023-08-08T07:06:50;101492.44;;;15.91;85.42
80128;BME280;69440;52.118;5.408;2023-08-08T07:09:17;101489.63;;;15.92;85.15
80128;BME280;69440;52.118;5.408;2023-08-08T07:11:43;101493.88;;;15.96;84.02
80128;BME280;69440;52.118;5.408;2023-08-08T07:14:10;101483.44;;;16.03;84.47
80128;BME280;69440;52.118;5.408;2023-08-08T07:16:36;101486.69;;;16.08;83.87
80128;BME280;69440;52.118;5.408;2023-08-08T07:19:03;101483.75;;;16.11;83.85
80128;BME280;69440;52.118;5.408;2023-08-08T07:21:29;101486.25;;;16.14;83.29
80128;BME280;69440;52.118;5.408;2023-08-08T07:23:56;101483.19;;;16.19;81.40
80128;BME280;69440;52.118;5.408;2023-08-08T07:26:23;101483.09;;;16.20;81.68
80128;BME280;69440;52.118;5.408;2023-08-08T07:28:50;101475.63;;;16.24;82.40
80128;BME280;69440;52.118;5.408;2023-08-08T07:31:16;101482.31;;;16.31;80.57
80128;BME280;69440;52.118;5.408;2023-08-08T07:33:43;101473.97;;;16.34;80.36
80128;BME280;69440;52.118;5.408;2023-08-08T07:36:09;101470.03;;;16.38;78.58
80128;BME280;69440;52.118;5.408;2023-08-08T07:38:36;101469.34;;;16.47;79.11
80128;BME280;69440;52.118;5.408;2023-08-08T07:41:06;101458.72;;;16.57;79.72
80128;BME280;69440;52.118;5.408;2023-08-08T07:43:33;101462.81;;;16.62;78.35
80128;BME280;69440;52.118;5.408;2023-08-08T07:46:01;101459.34;;;16.60;78.63
80128;BME280;69440;52.118;5.408;2023-08-08T07:48:27;101458.25;;;16.63;78.25
80128;BME280;69440;52.118;5.408;2023-08-08T07:50:54;101456.19;;;16.66;77.44
80128;BME280;69440;52.118;5.408;2023-08-08T07:53:22;101446.41;;;16.64;78.08
80128;BME280;69440;52.118;5.408;2023-08-08T07:55:48;101456.72;;;16.71;77.62
80128;BME280;69440;52.118;5.408;2023-08-08T07:58:15;101454.28;;;16.80;75.25
80128;BME280;69440;52.118;5.408;2023-08-08T08:00:41;101458.31;;;16.87;76.71
80128;BME280;69440;52.118;5.408;2023-08-08T08:03:08;101461.53;;;16.92;74.86
80128;BME280;69440;52.118;5.408;2023-08-08T08:05:34;101468.69;;;16.93;76.64
80128;BME280;69440;52.118;5.408;2023-08-08T08:08:02;101460.44;;;16.94;75.20
80128;BME280;69440;52.118;5.408;2023-08-08T08:10:28;101461.69;;;17.01;76.87
80128;BME280;69440;52.118;5.408;2023-08-08T08:12:55;101452.81;;;17.11;75.29
80128;BME280;69440;52.118;5.408;2023-08-08T08:15:25;101449.19;;;17.23;74.46
80128;BME280;69440;52.118;5.408;2023-08-08T08:17:52;101448.34;;;17.33;74.42
80128;BME280;69440;52.118;5.408;2023-08-08T08:20:18;101449.59;;;17.41;72.68
80128;BME280;69440;52.118;5.408;2023-08-08T08:22:45;101439.25;;;17.46;72.10
80128;BME280;69440;52.118;5.408;2023-08-08T08:25:13;101444.47;;;17.49;73.18
80128;BME280;69440;52.118;5.408;2023-08-08T08:27:40;101440.38;;;17.54;71.38
80128;BME280;69440;52.118;5.408;2023-08-08T08:30:07;101450.63;;;17.51;69.96
80128;BME280;69440;52.118;5.408;2023-08-08T08:32:38;101451.34;;;17.42;68.82
80128;BME280;69440;52.118;5.408;2023-08-08T08:35:06;101447.28;;;17.47;72.42
80128;BME280;69440;52.118;5.408;2023-08-08T08:37:34;101448.66;;;17.64;69.51
80128;BME280;69440;52.118;5.408;2023-08-08T08:40:01;101443.94;;;17.79;72.48
80128;BME280;69440;52.118;5.408;2023-08-08T08:42:28;101450.47;;;17.87;69.88
80128;BME280;69440;52.118;5.408;2023-08-08T08:44:58;101461.09;;;17.79;68.75
80128;BME280;69440;52.118;5.408;2023-08-08T08:47:28;101449.47;;;17.88;68.00
80128;BME280;69440;52.118;5.408;2023-08-08T08:49:57;101447.13;;;17.95;68.17
80128;BME280;69440;52.118;5.408;2023-08-08T08:52:23;101459.50;;;17.88;65.31
80128;BME280;69440;52.118;5.408;2023-08-08T08:54:51;101440.22;;;17.80;67.40
80128;BME280;69440;52.118;5.408;2023-08-08T08:57:18;101456.50;;;17.68;65.59
80128;BME280;69440;52.118;5.408;2023-08-08T08:59:46;101449.19;;;17.69;67.59
80128;BME280;69440;52.118;5.408;2023-08-08T09:02:13;101468.22;;;17.69;67.33
80128;BME280;69440;52.118;5.408;2023-08-08T09:04:40;101469.84;;;17.72;68.60
80128;BME280;69440;52.118;5.408;2023-08-08T09:07:07;101457.66;;;17.77;67.83
80128;BME280;69440;52.118;5.408;2023-08-08T09:09:35;101460.47;;;17.76;67.57
80128;BME280;69440;52.118;5.408;2023-08-08T09:12:03;101463.22;;;17.76;68.20
80128;BME280;69440;52.118;5.408;2023-08-08T09:14:31;101461.09;;;17.79;67.77
80128;BME280;69440;52.118;5.408;2023-08-08T09:16:58;101462.56;;;17.72;65.48
80128;BME280;69440;52.118;5.408;2023-08-08T09:19:25;101461.28;;;17.65;67.91
80128;BME280;69440;52.118;5.408;2023-08-08T09:21:52;101470.72;;;17.72;68.83
80128;BME280;69440;52.118;5.408;2023-08-08T09:24:19;101463.69;;;17.81;67.77
80128;BME280;69440;52.118;5.408;2023-08-08T09:26:45;101461.09;;;17.79;67.35
80128;BME280;69440;52.118;5.408;2023-08-08T09:29:13;101446.16;;;17.85;66.78
80128;BME280;69440;52.118;5.408;2023-08-08T09:31:41;101453.69;;;18.04;68.53
80128;BME280;69440;52.118;5.408;2023-08-08T09:34:07;101458.78;;;18.08;66.33
80128;BME280;69440;52.118;5.408;2023-08-08T09:36:34;101448.88;;;18.07;67.29
80128;BME280;69440;52.118;5.408;2023-08-08T09:39:03;101452.97;;;18.13;67.25
80128;BME280;69440;52.118;5.408;2023-08-08T09:41:31;101460.84;;;18.27;67.14
80128;BME280;69440;52.118;5.408;2023-08-08T09:43:58;101461.72;;;18.39;66.54
80128;BME280;69440;52.118;5.408;2023-08-08T09:46:25;101456.78;;;18.44;66.11
80128;BME280;69440;52.118;5.408;2023-08-08T09:48:52;101454.44;;;18.39;65.66
80128;BME280;69440;52.118;5.408;2023-08-08T09:51:20;101470.63;;;18.29;64.94
80128;BME280;69440;52.118;5.408;2023-08-08T09:53:48;101451.47;;;18.20;64.22
80128;BME280;69440;52.118;5.408;2023-08-08T09:56:14;101455.53;;;18.37;64.52
80128;BME280;69440;52.118;5.408;2023-08-08T09:58:42;101472.59;;;18.27;63.53
80128;BME280;69440;52.118;5.408;2023-08-08T10:01:10;101471.25;;;18.11;63.49
80128;BME280;69440;52.118;5.408;2023-08-08T10:03:39;101471.50;;;18.19;66.11
80128;BME280;69440;52.118;5.408;2023-08-08T10:06:09;101474.94;;;18.32;65.47
80128;BME280;69440;52.118;5.408;2023-08-08T10:08:36;101470.88;;;18.38;63.17
80128;BME280;69440;52.118;5.408;2023-08-08T10:11:05;101474.44;;;18.49;63.45
80128;BME280;69440;52.118;5.408;2023-08-08T10:13:34;101475.44;;;18.48;65.67
80128;BME280;69440;52.118;5.408;2023-08-08T10:16:04;101468.25;;;18.58;62.43
80128;BME280;69440;52.118;5.408;2023-08-08T10:18:34;101460.84;;;18.72;64.26
80128;BME280;69440;52.118;5.408;2023-08-08T10:21:04;101464.50;;;18.82;65.18
80128;BME280;69440;52.118;5.408;2023-08-08T10:23:36;101468.97;;;18.83;64.64
80128;BME280;69440;52.118;5.408;2023-08-08T10:26:03;101480.25;;;18.78;62.21
80128;BME280;69440;52.118;5.408;2023-08-08T10:28:32;101478.47;;;18.88;65.30
80128;BME280;69440;52.118;5.408;2023-08-08T10:31:00;101478.47;;;18.88;63.71
80128;BME280;69440;52.118;5.408;2023-08-08T10:33:42;101474.28;;;18.84;62.67
80128;BME280;69440;52.118;5.408;2023-08-08T10:36:09;101466.63;;;18.78;65.28
80128;BME280;69440;52.118;5.408;2023-08-08T10:38:43;101478.41;;;18.79;65.52
80128;BME280;69440;52.118;5.408;2023-08-08T10:41:11;101478.31;;;18.69;63.99
80128;BME280;69440;52.118;5.408;2023-08-08T10:43:56;101483.09;;;18.66;64.80
80128;BME280;69440;52.118;5.408;2023-08-08T10:46:32;101484.97;;;18.54;64.83
80128;BME280;69440;52.118;5.408;2023-08-08T10:49:01;101489.56;;;18.42;63.73
80128;BME280;69440;52.118;5.408;2023-08-08T10:51:39;101475.06;;;18.53;65.11
80128;BME280;69440;52.118;5.408;2023-08-08T10:54:18;101482.63;;;18.72;62.41
80128;BME280;69440;52.118;5.408;2023-08-08T10:56:52;101469.56;;;18.86;64.82
80128;BME280;69440;52.118;5.408;2023-08-08T10:59:41;101471.88;;;19.02;65.52
80128;BME280;69440;52.118;5.408;2023-08-08T11:02:07;101465.25;;;19.16;64.42
80128;BME280;69440;52.118;5.408;2023-08-08T11:04:35;101473.63;;;19.24;62.73
80128;BME280;69440;52.118;5.408;2023-08-08T11:07:01;101471.31;;;19.19;63.32
80128;BME280;69440;52.118;5.408;2023-08-08T11:09:28;101469.75;;;19.06;61.90
80128;BME280;69440;52.118;5.408;2023-08-08T11:11:55;101479.31;;;19.00;60.91
80128;BME280;69440;52.118;5.408;2023-08-08T11:14:22;101464.84;;;19.00;61.77
80128;BME280;69440;52.118;5.408;2023-08-08T11:16:50;101480.81;;;18.93;62.30
80128;BME280;69440;52.118;5.408;2023-08-08T11:19:18;101479.81;;;18.94;62.39
80128;BME280;69440;52.118;5.408;2023-08-08T11:21:49;101472.78;;;19.23;60.96
80128;BME280;69440;52.118;5.408;2023-08-08T11:24:16;101482.06;;;19.32;62.08
80128;BME280;69440;52.118;5.408;2023-08-08T11:26:44;101470.56;;;19.17;59.75
80128;BME280;69440;52.118;5.408;2023-08-08T11:29:13;101474.00;;;18.99;59.89
80128;BME280;69440;52.118;5.408;2023-08-08T11:31:40;101461.84;;;19.03;62.94
80128;BME280;69440;52.118;5.408;2023-08-08T11:34:07;101469.28;;;19.01;61.16
80128;BME280;69440;52.118;5.408;2023-08-08T11:36:36;101483.66;;;18.91;60.60
80128;BME280;69440;52.118;5.408;2023-08-08T11:39:04;101469.56;;;18.86;61.57
80128;BME280;69440;52.118;5.408;2023-08-08T11:41:35;101465.72;;;19.00;60.18
80128;BME280;69440;52.118;5.408;2023-08-08T11:44:03;101460.94;;;19.13;59.66
80128;BME280;69440;52.118;5.408;2023-08-08T11:46:30;101457.50;;;19.32;61.34
80128;BME280;69440;52.118;5.408;2023-08-08T11:49:06;101456.19;;;19.47;61.10
80128;BME280;69440;52.118;5.408;2023-08-08T11:51:34;101453.25;;;19.81;61.77
80128;BME280;69440;52.118;5.408;2023-08-08T11:54:03;101459.13;;;19.76;59.08
80128;BME280;69440;52.118;5.408;2023-08-08T11:56:33;101454.72;;;19.85;60.18
80128;BME280;69440;52.118;5.408;2023-08-08T11:59:01;101456.09;;;20.00;59.14
80128;BME280;69440;52.118;5.408;2023-08-08T12:01:30;101450.50;;;20.02;57.11
80128;BME280;69440;52.118;5.408;2023-08-08T12:03:56;101446.31;;;19.98;61.26
80128;BME280;69440;52.118;5.408;2023-08-08T12:06:28;101457.72;;;19.82;59.03
80128;BME280;69440;52.118;5.408;2023-08-08T12:08:55;101446.88;;;19.92;59.28
80128;BME280;69440;52.118;5.408;2023-08-08T12:11:21;101454.06;;;19.93;59.58
80128;BME280;69440;52.118;5.408;2023-08-08T12:13:51;101456.69;;;20.04;59.51
80128;BME280;69440;52.118;5.408;2023-08-08T12:16:17;101458.59;;;20.13;60.60
80128;BME280;69440;52.118;5.408;2023-08-08T12:18:44;101451.47;;;19.91;60.12
80128;BME280;69440;52.118;5.408;2023-08-08T12:21:11;101439.69;;;20.21;60.27
80128;BME280;69440;52.118;5.408;2023-08-08T12:23:38;101440.47;;;20.42;62.29
80128;BME280;69440;52.118;5.408;2023-08-08T12:26:05;101441.84;;;20.58;58.88
80128;BME280;69440;52.118;5.408;2023-08-08T12:28:32;101442.72;;;20.77;59.83
80128;BME280;69440;52.118;5.408;2023-08-08T12:30:59;101443.28;;;20.62;59.84
80128;BME280;69440;52.118;5.408;2023-08-08T12:33:26;101448.59;;;20.23;58.65
80128;BME280;69440;52.118;5.408;2023-08-08T12:35:52;101446.94;;;20.11;60.91
80128;BME280;69440;52.118;5.408;2023-08-08T12:38:19;101458.00;;;20.09;60.96
80128;BME280;69440;52.118;5.408;2023-08-08T12:40:45;101451.94;;;19.96;60.37
80128;BME280;69440;52.118;5.408;2023-08-08T12:43:12;101447.59;;;19.94;60.83
80128;BME280;69440;52.118;5.408;2023-08-08T12:45:40;101457.94;;;19.69;60.00
80128;BME280;69440;52.118;5.408;2023-08-08T12:48:06;101453.44;;;19.47;61.95